Time;durP1;ratioP1;P1;durP2;ratioP2;P2;SDS_P1;SDS_P2;PMS_P1;PMS_P2;Temp;Humidity;BMP_temperature;BMP_pressure;BME280_temperature;BME280_humidity;BME280_pressure;Samples;Min_cycle;Max_cycle;Signal;HPM_P1;HPM_P2
2024/01/03 00:00:29;;;;;;;6.57;1.60;;;8.60;99.90;;;;;;5052755;28;20084;-82
2024/01/03 00:02:55;;;;;;;12.48;1.40;;;8.60;99.90;;;;;;5058775;28;20400;-82
2024/01/03 00:05:41;;;;;;;14.10;1.25;;;8.60;99.90;;;;;;5062771;28;20048;-83
2024/01/03 00:08:13;;;;;;;10.95;1.40;;;8.60;99.90;;;;;;5072956;28;20056;-83
2024/01/03 00:10:48;;;;;;;8.52;1.20;;;8.50;99.90;;;;;;5052240;28;20052;-83
2024/01/03 00:13:49;;;;;;;9.57;1.38;;;8.50;99.90;;;;;;5052491;28;20049;-83
2024/01/03 00:16:21;;;;;;;8.32;1.40;;;8.60;99.90;;;;;;5059818;28;20055;-83
2024/01/03 00:18:58;;;;;;;10.60;2.28;;;8.50;99.90;;;;;;5072603;28;20066;-83
2024/01/03 00:21:28;;;;;;;10.32;1.40;;;8.50;99.90;;;;;;5054981;28;20068;-84
2024/01/03 00:24:00;;;;;;;10.48;1.40;;;8.60;99.90;;;;;;5053186;28;20060;-83
2024/01/03 00:26:28;;;;;;;9.90;2.33;;;8.50;99.90;;;;;;5071531;28;20044;-83
2024/01/03 00:28:55;;;;;;;9.20;1.98;;;8.70;99.90;;;;;;5071388;28;20048;-83
2024/01/03 00:31:37;;;;;;;9.48;1.30;;;8.70;99.90;;;;;;5070621;28;20056;-82
2024/01/03 00:34:10;;;;;;;6.95;1.23;;;8.50;99.90;;;;;;5065388;28;20056;-83
2024/01/03 00:36:36;;;;;;;5.23;1.07;;;8.50;99.90;;;;;;5052378;28;20045;-82
2024/01/03 00:39:02;;;;;;;7.65;1.58;;;8.40;99.90;;;;;;5070782;28;20044;-83
2024/01/03 00:41:27;;;;;;;10.52;1.10;;;8.40;99.90;;;;;;5059760;28;20396;-82
2024/01/03 00:43:53;;;;;;;7.72;1.42;;;8.40;99.90;;;;;;5067542;28;20119;-82
2024/01/03 00:46:19;;;;;;;8.55;1.05;;;8.50;99.90;;;;;;5055921;28;20052;-83
2024/01/03 00:48:44;;;;;;;9.73;0.90;;;8.40;99.90;;;;;;5068833;28;20560;-83
2024/01/03 00:51:10;;;;;;;12.35;1.60;;;8.40;99.90;;;;;;5067323;28;20081;-82
2024/01/03 00:53:36;;;;;;;7.80;1.10;;;8.50;99.90;;;;;;5060827;28;20124;-83
2024/01/03 00:56:03;;;;;;;8.13;1.30;;;8.30;99.90;;;;;;5054022;28;20055;-83
2024/01/03 00:58:29;;;;;;;10.50;1.30;;;8.30;99.90;;;;;;5053788;28;20533;-82
2024/01/03 01:00:55;;;;;;;8.93;1.60;;;8.30;99.90;;;;;;5062997;28;20073;-83
2024/01/03 01:03:21;;;;;;;7.68;1.20;;;8.30;99.90;;;;;;5034812;28;20088;-83
2024/01/03 01:05:47;;;;;;;7.82;1.05;;;8.30;99.90;;;;;;5054005;28;20084;-82
2024/01/03 01:08:13;;;;;;;10.30;1.50;;;8.30;99.90;;;;;;5071988;28;20135;-83
2024/01/03 01:10:39;;;;;;;7.95;0.90;;;8.30;99.90;;;;;;5056135;28;20102;-82
2024/01/03 01:13:04;;;;;;;10.88;1.00;;;8.20;99.90;;;;;;5069547;28;20098;-83
2024/01/03 01:15:30;;;;;;;8.60;1.38;;;8.50;99.90;;;;;;5064174;28;20048;-83
2024/01/03 01:17:55;;;;;;;14.70;1.95;;;8.40;99.90;;;;;;5061220;28;20040;-82
2024/01/03 01:20:21;;;;;;;9.77;1.70;;;8.30;99.90;;;;;;5053140;28;20436;-83
2024/01/03 01:22:48;;;;;;;10.77;1.63;;;8.20;99.90;;;;;;5067833;28;20060;-82
2024/01/03 01:25:15;;;;;;;9.82;1.58;;;8.20;99.90;;;;;;5063582;28;20111;-82
2024/01/03 01:27:43;;;;;;;13.10;1.90;;;8.20;99.90;;;;;;5050955;28;20048;-83
2024/01/03 01:30:09;;;;;;;14.45;1.40;;;8.20;99.90;;;;;;5052326;28;20124;-82
2024/01/03 01:32:35;;;;;;;9.98;1.40;;;8.20;99.90;;;;;;5059668;28;20577;-83
2024/01/03 01:35:00;;;;;;;9.75;1.30;;;8.20;99.90;;;;;;5067234;28;20048;-83
2024/01/03 01:37:29;;;;;;;7.70;1.42;;;8.20;99.90;;;;;;5051952;28;20077;-83
2024/01/03 01:39:55;;;;;;;8.13;1.48;;;8.20;99.90;;;;;;5058726;28;20071;-83
2024/01/03 01:42:22;;;;;;;9.82;1.65;;;8.20;99.90;;;;;;5057405;28;20107;-83
2024/01/03 01:44:47;;;;;;;13.07;1.80;;;8.50;99.90;;;;;;5061767;28;20048;-83
2024/01/03 01:47:14;;;;;;;6.60;0.90;;;8.20;99.90;;;;;;5053498;28;20056;-84
2024/01/03 01:49:40;;;;;;;7.30;1.40;;;8.30;99.90;;;;;;5064538;28;20098;-83
2024/01/03 01:52:12;;;;;;;10.43;1.90;;;8.20;99.90;;;;;;5056160;28;20503;-83
2024/01/03 01:54:38;;;;;;;11.68;1.38;;;8.30;99.90;;;;;;5070373;28;20051;-83
2024/01/03 01:57:04;;;;;;;9.18;1.63;;;8.50;99.90;;;;;;5051269;28;20074;-84
2024/01/03 01:59:30;;;;;;;8.13;1.33;;;8.30;99.90;;;;;;5050593;28;20041;-83
2024/01/03 02:01:57;;;;;;;8.40;1.25;;;8.30;99.90;;;;;;5063059;28;20056;-84
2024/01/03 02:04:27;;;;;;;7.78;1.20;;;8.30;99.90;;;;;;5061146;28;20132;-85
2024/01/03 02:06:53;;;;;;;10.60;1.45;;;8.30;99.90;;;;;;5062013;28;20051;-83
2024/01/03 02:09:19;;;;;;;6.35;0.80;;;8.30;99.90;;;;;;5071626;28;20123;-84
2024/01/03 02:11:45;;;;;;;9.35;1.10;;;8.30;99.90;;;;;;5067060;28;20124;-84
2024/01/03 02:14:11;;;;;;;11.10;1.20;;;8.40;99.90;;;;;;5060690;28;20045;-85
2024/01/03 02:16:37;;;;;;;11.30;1.40;;;8.50;99.90;;;;;;5061658;28;20128;-85
2024/01/03 02:19:05;;;;;;;7.80;1.02;;;8.70;99.90;;;;;;5056796;28;20385;-85
2024/01/03 02:21:31;;;;;;;6.82;0.85;;;8.50;99.90;;;;;;5052670;28;20060;-85
2024/01/03 02:23:57;;;;;;;6.35;0.80;;;8.70;99.90;;;;;;5051178;28;20094;-84
2024/01/03 02:26:22;;;;;;;10.63;1.35;;;8.70;99.90;;;;;;5054418;28;20530;-84
2024/01/03 02:28:48;;;;;;;7.50;0.98;;;8.50;99.90;;;;;;5061911;28;20049;-85
2024/01/03 02:31:14;;;;;;;9.50;1.58;;;8.50;99.90;;;;;;5035568;28;20049;-84
2024/01/03 02:33:43;;;;;;;7.43;1.05;;;8.50;99.90;;;;;;5059507;28;20044;-85
2024/01/03 02:36:08;;;;;;;10.02;1.33;;;8.50;99.90;;;;;;5044332;28;20392;-85
2024/01/03 02:38:34;;;;;;;10.80;1.10;;;8.50;99.90;;;;;;5051151;28;20389;-85
2024/01/03 02:40:59;;;;;;;6.72;1.20;;;8.80;99.90;;;;;;5057242;28;20366;-85
2024/01/03 02:43:25;;;;;;;9.60;1.00;;;8.50;99.90;;;;;;5050579;28;20053;-86
2024/01/03 02:45:51;;;;;;;5.75;1.00;;;8.50;99.90;;;;;;5059930;28;20045;-85
2024/01/03 02:48:16;;;;;;;5.45;1.05;;;8.60;99.90;;;;;;5072888;28;20052;-84
2024/01/03 02:50:47;;;;;;;9.60;1.10;;;8.60;99.90;;;;;;5071098;28;20087;-85
2024/01/03 02:53:13;;;;;;;6.85;0.82;;;8.60;99.90;;;;;;5074284;28;20057;-85
2024/01/03 02:55:39;;;;;;;6.13;1.00;;;8.60;99.90;;;;;;5037019;28;20045;-85
2024/01/03 02:58:05;;;;;;;8.88;1.10;;;8.60;99.90;;;;;;5054583;28;20111;-85
2024/01/03 03:00:30;;;;;;;6.18;1.00;;;8.70;99.90;;;;;;5053803;28;20044;-84
2024/01/03 03:02:56;;;;;;;4.68;0.98;;;8.70;99.90;;;;;;5062564;28;20087;-85
2024/01/03 03:05:22;;;;;;;8.90;1.15;;;8.70;99.90;;;;;;5062612;28;20084;-86
2024/01/03 03:07:48;;;;;;;7.22;0.80;;;8.70;99.90;;;;;;5053565;28;20660;-86
2024/01/03 03:10:14;;;;;;;9.85;1.73;;;8.80;99.90;;;;;;5057311;28;20045;-84
2024/01/03 03:12:40;;;;;;;6.00;0.80;;;8.80;99.90;;;;;;5060600;28;20044;-85
2024/01/03 03:15:06;;;;;;;8.30;1.30;;;8.80;99.90;;;;;;5059313;28;20094;-85
2024/01/03 03:17:32;;;;;;;9.13;1.10;;;8.70;99.90;;;;;;5062485;28;20045;-84
2024/01/03 03:19:58;;;;;;;7.68;0.88;;;8.80;99.90;;;;;;5057062;28;20716;-85
2024/01/03 03:22:23;;;;;;;7.25;1.08;;;8.70;99.90;;;;;;5059691;28;20122;-84
2024/01/03 03:24:49;;;;;;;8.48;0.90;;;8.70;99.90;;;;;;5062730;28;20049;-84
2024/01/03 03:27:14;;;;;;;6.68;1.45;;;8.80;99.90;;;;;;5036880;28;20045;-86
2024/01/03 03:29:40;;;;;;;7.47;1.00;;;8.70;99.90;;;;;;5055653;28;20782;-84
2024/01/03 03:32:07;;;;;;;8.55;1.00;;;9.00;99.90;;;;;;5069596;28;20052;-84
2024/01/03 03:34:32;;;;;;;5.88;1.25;;;8.70;99.90;;;;;;5065088;28;20110;-85
2024/01/03 03:36:58;;;;;;;6.47;0.85;;;8.70;99.90;;;;;;5057104;28;20045;-85
2024/01/03 03:39:24;;;;;;;8.45;1.45;;;8.70;99.90;;;;;;5053416;28;20128;-86
2024/01/03 03:41:50;;;;;;;7.97;1.45;;;8.80;99.90;;;;;;5053153;28;20124;-84
2024/01/03 03:44:15;;;;;;;8.13;0.95;;;8.80;99.90;;;;;;5065136;28;20037;-85
2024/01/03 03:46:41;;;;;;;4.88;1.02;;;8.80;99.90;;;;;;5058753;28;20052;-86
2024/01/03 03:49:07;;;;;;;10.80;1.30;;;8.80;99.90;;;;;;5053155;28;20060;-85
2024/01/03 03:51:33;;;;;;;7.70;1.30;;;8.80;99.90;;;;;;5036511;28;20106;-84
2024/01/03 03:53:59;;;;;;;11.40;1.30;;;8.70;99.90;;;;;;5052584;28;20048;-85
2024/01/03 03:56:26;;;;;;;6.13;1.15;;;9.00;99.90;;;;;;5050187;28;20377;-85
2024/01/03 03:58:52;;;;;;;5.57;0.80;;;8.60;99.90;;;;;;5053231;28;20041;-85
2024/01/03 04:01:18;;;;;;;9.93;1.20;;;8.60;99.90;;;;;;5056210;28;20385;-85
2024/01/03 04:03:44;;;;;;;8.05;0.88;;;8.70;99.90;;;;;;5053778;28;20048;-86
2024/01/03 04:06:12;;;;;;;4.00;0.85;;;8.50;99.90;;;;;;5068340;28;20444;-85
2024/01/03 04:08:41;;;;;;;7.22;0.70;;;8.50;99.90;;;;;;5054879;28;20045;-84
2024/01/03 04:11:07;;;;;;;4.93;1.33;;;8.40;99.90;;;;;;5059360;28;20037;-85
2024/01/03 04:13:33;;;;;;;6.38;0.80;;;8.40;99.90;;;;;;5052950;28;20475;-85
2024/01/03 04:16:02;;;;;;;3.38;0.60;;;8.40;99.90;;;;;;5052967;28;20053;-85
2024/01/03 04:18:28;;;;;;;5.47;0.85;;;8.30;99.90;;;;;;5052713;28;20048;-85
2024/01/03 04:20:54;;;;;;;5.72;1.08;;;8.30;99.90;;;;;;5061086;28;20053;-83
2024/01/03 04:23:20;;;;;;;5.40;0.70;;;8.50;99.90;;;;;;5052775;28;20151;-84
2024/01/03 04:25:45;;;;;;;7.82;1.15;;;8.20;99.90;;;;;;5069063;28;20049;-84
2024/01/03 04:28:11;;;;;;;7.75;0.90;;;8.60;99.90;;;;;;5064253;28;20436;-84
2024/01/03 04:30:37;;;;;;;4.30;0.63;;;8.20;99.90;;;;;;5027686;28;20441;-85
2024/01/03 04:33:03;;;;;;;6.00;0.68;;;8.20;99.90;;;;;;5055401;28;20504;-86
2024/01/03 04:35:28;;;;;;;5.28;0.90;;;8.20;99.90;;;;;;5062922;28;20050;-85
2024/01/03 04:38:01;;;;;;;4.35;0.80;;;8.20;99.90;;;;;;5072128;28;20053;-85
2024/01/03 04:40:27;;;;;;;5.10;0.57;;;8.20;99.90;;;;;;5070872;28;20037;-85
2024/01/03 04:42:53;;;;;;;2.67;0.50;;;8.20;99.90;;;;;;5073264;28;20135;-84
2024/01/03 04:45:18;;;;;;;3.35;0.50;;;8.50;99.90;;;;;;5070717;28;20450;-84
2024/01/03 04:47:44;;;;;;;4.00;0.63;;;8.20;99.90;;;;;;5070316;28;20045;-84
2024/01/03 04:50:09;;;;;;;5.53;0.50;;;8.10;99.90;;;;;;5062119;28;20033;-83
2024/01/03 04:52:35;;;;;;;3.33;0.57;;;8.40;99.90;;;;;;5072583;28;20171;-85
2024/01/03 04:55:01;;;;;;;3.38;0.73;;;8.10;99.90;;;;;;5063436;28;20076;-82
2024/01/03 04:57:26;;;;;;;4.88;0.93;;;8.30;99.90;;;;;;5053951;28;20055;-83
2024/01/03 04:59:55;;;;;;;4.60;0.95;;;8.20;99.90;;;;;;5071079;28;20044;-84
2024/01/03 05:02:21;;;;;;;6.28;1.30;;;8.20;99.90;;;;;;5055360;28;20625;-84
2024/01/03 05:04:48;;;;;;;6.05;0.68;;;8.30;99.90;;;;;;5070960;28;20040;-83
2024/01/03 05:07:14;;;;;;;5.25;0.70;;;8.20;99.90;;;;;;5070970;28;20480;-83
2024/01/03 05:09:40;;;;;;;3.97;1.30;;;8.20;99.90;;;;;;5054634;28;20123;-83
2024/01/03 05:12:05;;;;;;;4.85;0.60;;;8.20;99.90;;;;;;5059248;28;20132;-83
2024/01/03 05:14:31;;;;;;;4.70;0.93;;;8.20;99.90;;;;;;5044192;28;20052;-84
2024/01/03 05:16:57;;;;;;;6.15;0.68;;;8.20;99.90;;;;;;5064720;28;20068;-83
2024/01/03 05:19:23;;;;;;;5.28;0.60;;;8.20;99.90;;;;;;5045063;28;20118;-82
2024/01/03 05:21:48;;;;;;;3.45;0.60;;;8.20;99.90;;;;;;5050993;28;20509;-83
2024/01/03 05:24:14;;;;;;;8.63;0.70;;;8.20;99.90;;;;;;5057754;28;20055;-83
2024/01/03 05:26:40;;;;;;;5.20;0.80;;;8.10;99.90;;;;;;5071746;28;20123;-82
2024/01/03 05:29:06;;;;;;;8.88;1.20;;;8.30;99.90;;;;;;5070308;28;20420;-83
2024/01/03 05:31:31;;;;;;;10.73;1.65;;;8.10;99.90;;;;;;5056504;28;20095;-83
2024/01/03 05:33:57;;;;;;;10.50;1.30;;;8.10;99.90;;;;;;5052934;28;20049;-83
2024/01/03 05:36:22;;;;;;;12.82;2.08;;;8.20;99.90;;;;;;5062938;28;20045;-82
2024/01/03 05:38:48;;;;;;;23.98;2.40;;;8.20;99.90;;;;;;5050890;28;20397;-82
2024/01/03 05:41:14;;;;;;;18.38;2.40;;;8.20;99.90;;;;;;5064363;28;20045;-82
2024/01/03 05:43:39;;;;;;;21.45;3.00;;;8.20;99.90;;;;;;5055985;28;20076;-80
2024/01/03 05:46:05;;;;;;;14.77;3.40;;;8.30;99.90;;;;;;5054042;28;20487;-81
2024/01/03 05:48:31;;;;;;;23.98;3.20;;;8.30;99.90;;;;;;5065598;28;20060;-81
2024/01/03 05:50:56;;;;;;;23.88;2.83;;;8.40;99.90;;;;;;5071404;28;20399;-81
2024/01/03 05:53:22;;;;;;;16.52;2.72;;;8.40;99.90;;;;;;5070933;28;20041;-81
2024/01/03 05:55:48;;;;;;;15.65;2.50;;;8.60;99.90;;;;;;5070134;28;20128;-81
2024/01/03 05:58:13;;;;;;;17.98;2.30;;;8.40;99.90;;;;;;5070363;28;20055;-81
2024/01/03 06:00:39;;;;;;;12.52;3.20;;;8.50;99.90;;;;;;5069439;28;20396;-82
2024/01/03 06:03:05;;;;;;;18.88;2.95;;;8.40;99.90;;;;;;5053342;28;20174;-82
2024/01/03 06:05:30;;;;;;;15.45;2.38;;;8.40;99.90;;;;;;5051672;28;20157;-81
2024/01/03 06:07:56;;;;;;;16.88;3.25;;;8.40;99.90;;;;;;5051582;28;20174;-80
2024/01/03 06:10:21;;;;;;;14.38;2.40;;;8.40;99.90;;;;;;5056842;28;20123;-82
2024/01/03 06:12:47;;;;;;;16.63;2.65;;;8.40;99.90;;;;;;5062122;28;20059;-82
2024/01/03 06:15:13;;;;;;;17.83;1.95;;;8.40;99.90;;;;;;5062668;28;20040;-81
2024/01/03 06:17:39;;;;;;;17.20;2.30;;;8.40;99.90;;;;;;5066791;28;20037;-82
2024/01/03 06:20:06;;;;;;;18.63;2.35;;;8.60;99.90;;;;;;5067872;28;20105;-81
2024/01/03 06:22:31;;;;;;;14.52;2.10;;;8.50;99.90;;;;;;5054549;28;20053;-82
2024/01/03 06:24:57;;;;;;;18.40;2.72;;;8.50;99.90;;;;;;5054239;28;20351;-81
2024/01/03 06:27:22;;;;;;;20.92;3.50;;;8.50;99.90;;;;;;5055281;28;20107;-81
2024/01/03 06:29:48;;;;;;;17.17;2.75;;;8.50;99.90;;;;;;5054435;28;20052;-83
2024/01/03 06:32:14;;;;;;;20.77;2.60;;;8.50;99.90;;;;;;5055786;28;20127;-80
2024/01/03 06:34:40;;;;;;;17.55;2.28;;;8.50;99.90;;;;;;5063424;28;20044;-81
2024/01/03 06:37:06;;;;;;;14.55;2.25;;;8.50;99.90;;;;;;5075015;28;20135;-82
2024/01/03 06:39:31;;;;;;;12.05;1.80;;;8.50;99.90;;;;;;5071263;28;20451;-82
2024/01/03 06:41:57;;;;;;;18.55;2.30;;;8.50;99.90;;;;;;5054523;28;20036;-81
2024/01/03 06:44:23;;;;;;;16.02;2.72;;;8.60;99.90;;;;;;5062008;28;20087;-83
2024/01/03 06:46:51;;;;;;;18.60;2.42;;;8.50;99.90;;;;;;5065569;28;20059;-81
2024/01/03 06:49:17;;;;;;;15.27;2.63;;;8.40;99.90;;;;;;5066316;28;20127;-80
2024/01/03 06:51:43;;;;;;;21.27;2.65;;;8.50;99.90;;;;;;5071125;28;20082;-81
2024/01/03 06:54:09;;;;;;;17.20;2.65;;;8.40;99.90;;;;;;5067148;28;20079;-81
2024/01/03 06:56:34;;;;;;;16.08;2.47;;;8.40;99.90;;;;;;5066777;28;20483;-81
2024/01/03 06:59:00;;;;;;;23.00;2.17;;;8.40;99.90;;;;;;5063041;28;20376;-79
2024/01/03 07:01:26;;;;;;;19.35;2.90;;;8.40;99.90;;;;;;5056752;28;20076;-80
2024/01/03 07:03:52;;;;;;;11.20;2.05;;;8.40;99.90;;;;;;5063557;28;20041;-81
2024/01/03 07:06:17;;;;;;;15.63;2.70;;;8.30;99.90;;;;;;5066975;28;20446;-80
2024/01/03 07:08:43;;;;;;;11.43;1.35;;;8.30;99.90;;;;;;5064403;28;20053;-80
2024/01/03 07:11:09;;;;;;;12.85;2.00;;;8.40;99.90;;;;;;5063984;28;20049;-80
2024/01/03 07:13:35;;;;;;;7.32;1.27;;;8.30;99.90;;;;;;5060994;28;20364;-80
2024/01/03 07:16:00;;;;;;;12.35;1.35;;;8.30;99.90;;;;;;5062517;28;20041;-81
2024/01/03 07:18:26;;;;;;;16.08;1.80;;;8.30;99.90;;;;;;5065784;28;20135;-80
2024/01/03 07:20:52;;;;;;;14.90;1.40;;;8.30;99.90;;;;;;5064052;28;20168;-81
2024/01/03 07:23:17;;;;;;;11.40;1.25;;;8.30;99.90;;;;;;5057566;28;20431;-80
2024/01/03 07:25:43;;;;;;;9.38;1.35;;;8.40;99.90;;;;;;5059604;28;20163;-80
2024/01/03 07:28:09;;;;;;;12.43;1.52;;;8.40;99.90;;;;;;5069054;28;20087;-82
2024/01/03 07:30:35;;;;;;;8.20;1.27;;;8.40;99.90;;;;;;5063904;28;20060;-82
2024/01/03 07:33:01;;;;;;;7.95;1.33;;;8.40;99.90;;;;;;5055591;28;20041;-81
2024/01/03 07:35:26;;;;;;;8.18;1.35;;;8.40;99.90;;;;;;5061967;28;20109;-81
2024/01/03 07:37:52;;;;;;;9.65;1.50;;;8.40;99.90;;;;;;5058473;28;20411;-81
2024/01/03 07:40:18;;;;;;;10.95;2.17;;;8.40;99.90;;;;;;5068080;28;20090;-82
2024/01/03 07:42:43;;;;;;;12.70;1.45;;;8.50;99.90;;;;;;5061826;28;20401;-81
2024/01/03 07:45:09;;;;;;;17.92;2.53;;;8.50;99.90;;;;;;5059516;28;20381;-81
2024/01/03 07:47:35;;;;;;;13.85;2.13;;;8.50;99.90;;;;;;5062567;28;20044;-82
2024/01/03 07:50:00;;;;;;;18.73;2.45;;;8.50;99.90;;;;;;5058448;28;20069;-81
2024/01/03 07:52:27;;;;;;;17.33;2.70;;;8.60;99.90;;;;;;5065936;28;20452;-82
2024/01/03 07:54:53;;;;;;;12.48;1.67;;;8.50;99.90;;;;;;5058591;28;20075;-82
2024/01/03 07:57:19;;;;;;;15.13;3.30;;;8.80;99.90;;;;;;5058163;28;20418;-81
2024/01/03 07:59:45;;;;;;;16.75;2.30;;;8.70;99.90;;;;;;5054546;28;20077;-82
2024/01/03 08:02:14;;;;;;;19.23;2.38;;;8.60;99.90;;;;;;5065345;28;20055;-82
2024/01/03 08:04:42;;;;;;;10.38;1.33;;;8.60;99.90;;;;;;5058941;28;20045;-83
2024/01/03 08:07:08;;;;;;;13.35;2.90;;;8.60;99.90;;;;;;5059062;28;20041;-81
2024/01/03 08:09:34;;;;;;;15.07;1.85;;;8.60;99.90;;;;;;5039507;28;20060;-83
2024/01/03 08:12:01;;;;;;;12.20;1.88;;;8.60;99.90;;;;;;5066104;28;20055;-82
2024/01/03 08:14:26;;;;;;;17.50;2.10;;;8.70;99.90;;;;;;5067351;28;20135;-82
2024/01/03 08:16:52;;;;;;;23.33;3.08;;;8.60;99.90;;;;;;5058938;28;20133;-83
2024/01/03 08:19:18;;;;;;;19.23;2.80;;;8.60;99.90;;;;;;5065374;28;20056;-82
2024/01/03 08:21:44;;;;;;;19.77;2.55;;;8.70;99.90;;;;;;5068323;28;20048;-83
2024/01/03 08:24:09;;;;;;;14.52;2.25;;;8.80;99.90;;;;;;5063427;28;20086;-82
2024/01/03 08:26:35;;;;;;;11.68;1.70;;;8.60;99.90;;;;;;5060333;28;20128;-84
2024/01/03 08:29:01;;;;;;;13.82;2.10;;;8.60;99.90;;;;;;5064675;28;20424;-82
2024/01/03 08:31:26;;;;;;;12.25;1.95;;;8.70;99.90;;;;;;5059021;28;20053;-82
2024/01/03 08:33:52;;;;;;;10.52;1.65;;;8.60;99.90;;;;;;5063992;28;20029;-82
2024/01/03 08:36:17;;;;;;;12.25;1.85;;;8.60;99.90;;;;;;5061930;28;20178;-81
2024/01/03 08:38:43;;;;;;;12.80;1.75;;;8.60;99.90;;;;;;5066215;28;20044;-82
2024/01/03 08:41:17;;;;;;;15.57;1.88;;;8.60;99.90;;;;;;5065148;28;20496;-82
2024/01/03 08:43:43;;;;;;;12.18;1.42;;;8.50;99.90;;;;;;5061518;28;20040;-82
2024/01/03 08:46:09;;;;;;;11.70;1.95;;;8.50;99.90;;;;;;5061817;28;20052;-82
2024/01/03 08:48:35;;;;;;;14.05;2.08;;;8.50;99.90;;;;;;5062019;28;20028;-85
2024/01/03 08:51:01;;;;;;;14.60;1.50;;;8.40;99.90;;;;;;5063041;28;20044;-86
2024/01/03 08:53:26;;;;;;;14.85;2.10;;;8.40;99.90;;;;;;5053904;28;20098;-84
2024/01/03 08:55:52;;;;;;;14.77;1.90;;;8.70;99.90;;;;;;5053456;28;20103;-84
2024/01/03 08:58:18;;;;;;;11.77;2.05;;;8.50;99.90;;;;;;5052350;28;20463;-84
2024/01/03 09:00:44;;;;;;;13.90;1.70;;;8.40;99.90;;;;;;5054162;28;20060;-80
2024/01/03 09:03:10;;;;;;;9.57;1.60;;;8.60;99.90;;;;;;5052383;28;20124;-83
2024/01/03 09:05:36;;;;;;;10.43;1.65;;;8.50;99.90;;;;;;5069668;28;20480;-82
2024/01/03 09:08:02;;;;;;;11.38;1.95;;;8.50;99.90;;;;;;5052637;28;20072;-84
2024/01/03 09:10:27;;;;;;;12.57;1.98;;;8.50;99.90;;;;;;5052657;28;20045;-83
2024/01/03 09:12:53;;;;;;;9.40;2.20;;;8.60;99.90;;;;;;5052313;28;20129;-82
2024/01/03 09:15:20;;;;;;;9.75;1.70;;;8.60;99.90;;;;;;5053377;28;20057;-88
2024/01/03 09:17:45;;;;;;;11.07;1.60;;;8.60;99.90;;;;;;5057890;28;20077;-89
2024/01/03 09:20:11;;;;;;;10.77;1.40;;;8.60;99.90;;;;;;5045668;28;20072;-88
2024/01/03 09:22:38;;;;;;;13.60;1.65;;;8.60;99.90;;;;;;5051645;28;20066;-84
2024/01/03 09:25:04;;;;;;;14.05;2.42;;;8.80;99.90;;;;;;5064208;28;20132;-84
2024/01/03 09:27:30;;;;;;;12.75;1.52;;;8.60;99.90;;;;;;5060630;28;20065;-79
2024/01/03 09:29:56;;;;;;;8.50;1.33;;;8.60;99.90;;;;;;5062695;28;20068;-80
2024/01/03 09:32:22;;;;;;;14.00;1.83;;;8.60;99.90;;;;;;5058826;28;20048;-80
2024/01/03 09:34:47;;;;;;;14.50;1.77;;;8.60;99.90;;;;;;5059656;28;20094;-80
2024/01/03 09:37:14;;;;;;;15.85;2.50;;;8.60;99.90;;;;;;5058210;28;20049;-80
2024/01/03 09:39:40;;;;;;;14.38;1.70;;;8.80;99.90;;;;;;5059370;28;20072;-73
2024/01/03 09:42:07;;;;;;;6.75;1.70;;;8.70;99.90;;;;;;5053916;28;20493;-81
2024/01/03 09:44:33;;;;;;;8.68;1.50;;;8.70;99.90;;;;;;5062163;28;20049;-85
2024/01/03 09:46:59;;;;;;;12.32;2.05;;;8.70;99.90;;;;;;5066049;28;20066;-86
2024/01/03 09:49:25;;;;;;;8.30;1.80;;;8.70;99.90;;;;;;5058985;28;20045;-86
2024/01/03 09:51:52;;;;;;;10.02;2.25;;;8.90;99.90;;;;;;5059267;28;20048;-81
2024/01/03 09:54:19;;;;;;;8.88;1.27;;;8.80;99.90;;;;;;5059735;28;20060;-78
2024/01/03 09:56:47;;;;;;;9.23;1.50;;;8.80;99.90;;;;;;5055343;28;20048;-80
2024/01/03 09:59:14;;;;;;;16.88;2.35;;;8.90;99.90;;;;;;5067232;28;20043;-80
2024/01/03 10:01:39;;;;;;;13.98;1.75;;;8.90;99.90;;;;;;5055074;28;20045;-78
2024/01/03 10:04:06;;;;;;;9.70;1.40;;;8.90;99.90;;;;;;5063691;28;20102;-80
2024/01/03 10:06:32;;;;;;;7.28;1.58;;;8.90;99.90;;;;;;5065957;28;20045;-81
2024/01/03 10:09:00;;;;;;;11.25;1.70;;;8.90;99.90;;;;;;5053016;28;20047;-80
2024/01/03 10:11:26;;;;;;;17.40;1.70;;;9.00;99.90;;;;;;5049841;28;20052;-81
2024/01/03 10:13:54;;;;;;;8.85;1.33;;;8.90;99.90;;;;;;5048646;28;20081;-80
2024/01/03 10:16:27;;;;;;;11.50;1.88;;;8.90;99.90;;;;;;5049797;28;20049;-81
2024/01/03 10:19:10;;;;;;;7.63;1.40;;;9.00;99.90;;;;;;5050237;28;20441;-80
2024/01/03 10:21:45;;;;;;;12.30;2.20;;;8.90;99.90;;;;;;5052202;28;20534;-82
2024/01/03 10:24:11;;;;;;;7.20;1.50;;;8.90;99.90;;;;;;5050848;28;20134;-82
2024/01/03 10:26:37;;;;;;;6.40;1.00;;;9.10;99.90;;;;;;5052072;28;20076;-82
2024/01/03 10:29:17;;;;;;;10.25;1.35;;;8.90;99.90;;;;;;5051104;28;20139;-82
2024/01/03 10:31:47;;;;;;;8.95;1.30;;;8.90;99.90;;;;;;5052148;28;20400;-82
2024/01/03 10:34:19;;;;;;;6.03;1.13;;;9.00;99.90;;;;;;5052013;28;20124;-81
2024/01/03 10:36:46;;;;;;;11.25;1.20;;;8.90;99.90;;;;;;5052072;28;20392;-83
2024/01/03 10:39:15;;;;;;;14.70;1.85;;;8.90;99.90;;;;;;5051654;28;20052;-81
2024/01/03 10:41:45;;;;;;;9.30;1.42;;;9.00;99.90;;;;;;5051905;28;20049;-82
2024/01/03 10:44:13;;;;;;;6.28;1.17;;;8.90;99.90;;;;;;5050722;28;20094;-82
2024/01/03 10:46:41;;;;;;;9.45;1.10;;;9.00;99.90;;;;;;5050597;28;20049;-82
2024/01/03 10:49:07;;;;;;;8.40;1.13;;;9.00;99.90;;;;;;5050784;28;20049;-82
2024/01/03 10:51:41;;;;;;;7.32;1.33;;;9.10;99.90;;;;;;5050775;28;20132;-82
2024/01/03 10:54:09;;;;;;;6.97;1.00;;;8.90;99.90;;;;;;5050648;28;20052;-82
2024/01/03 10:56:36;;;;;;;7.32;1.33;;;9.00;99.90;;;;;;5050764;28;20041;-82
2024/01/03 10:59:03;;;;;;;6.35;1.17;;;9.00;99.90;;;;;;5050815;28;20102;-81
2024/01/03 11:01:54;;;;;;;8.85;1.30;;;9.00;99.90;;;;;;5050430;28;20235;-82
2024/01/03 11:04:28;;;;;;;10.85;1.67;;;9.10;99.90;;;;;;5050225;28;20079;-82
2024/01/03 11:07:20;;;;;;;3.95;0.93;;;9.10;99.90;;;;;;5053538;28;20110;-83
2024/01/03 11:09:45;;;;;;;6.55;1.20;;;9.10;99.90;;;;;;5054146;28;20107;-81
2024/01/03 11:12:18;;;;;;;8.40;1.60;;;9.20;99.90;;;;;;5054350;28;20037;-82
2024/01/03 11:14:45;;;;;;;8.40;1.85;;;9.20;99.90;;;;;;5053784;28;20407;-81
2024/01/03 11:17:11;;;;;;;7.47;1.30;;;9.20;99.90;;;;;;5054184;28;20045;-81
2024/01/03 11:19:38;;;;;;;11.88;1.17;;;9.10;99.90;;;;;;5053764;28;20407;-82
2024/01/03 11:22:04;;;;;;;11.32;1.55;;;9.20;99.90;;;;;;5053890;28;20045;-82
2024/01/03 11:24:33;;;;;;;9.45;2.00;;;9.20;99.90;;;;;;5053932;28;20041;-81
2024/01/03 11:27:04;;;;;;;12.85;1.90;;;9.20;99.90;;;;;;5053787;28;20095;-81
2024/01/03 11:29:35;;;;;;;9.90;1.77;;;9.20;99.90;;;;;;5053673;28;20107;-81
2024/01/03 11:32:05;;;;;;;12.70;1.85;;;9.20;99.90;;;;;;5054022;28;20049;-82
2024/01/03 11:34:49;;;;;;;20.70;2.85;;;9.20;99.90;;;;;;5053609;28;20489;-81
2024/01/03 11:37:18;;;;;;;11.63;1.67;;;9.20;99.90;;;;;;5053512;28;20064;-81
2024/01/03 11:39:46;;;;;;;12.68;2.33;;;9.10;99.90;;;;;;5053574;28;20045;-82
2024/01/03 11:42:28;;;;;;;17.00;1.92;;;9.10;99.90;;;;;;5053331;28;20063;-81
2024/01/03 11:45:04;;;;;;;19.42;2.13;;;9.10;99.90;;;;;;5053154;28;20466;-81
2024/01/03 11:47:30;;;;;;;20.02;1.77;;;9.10;99.90;;;;;;5053732;28;20110;-81
2024/01/03 11:50:01;;;;;;;14.40;2.38;;;9.10;99.90;;;;;;5053633;28;20404;-82
2024/01/03 11:52:27;;;;;;;17.35;2.85;;;9.20;99.90;;;;;;5053345;28;20132;-82
2024/01/03 11:54:53;;;;;;;17.92;2.53;;;9.20;99.90;;;;;;5053221;28;20473;-82
2024/01/03 11:57:22;;;;;;;18.50;1.90;;;9.30;99.90;;;;;;5053137;28;20099;-81
2024/01/03 12:00:00;;;;;;;16.75;2.22;;;9.30;99.90;;;;;;5053188;28;20045;-82
2024/01/03 12:02:26;;;;;;;13.73;2.20;;;9.40;99.90;;;;;;5052918;28;20512;-84
2024/01/03 12:05:04;;;;;;;12.48;1.85;;;9.40;99.90;;;;;;5052988;28;20087;-83
2024/01/03 12:07:37;;;;;;;17.20;2.40;;;9.40;99.90;;;;;;5053264;28;20052;-81
2024/01/03 12:10:06;;;;;;;15.90;2.17;;;9.40;99.90;;;;;;5053439;28;20127;-82
2024/01/03 12:12:33;;;;;;;16.00;1.90;;;9.50;99.90;;;;;;5053264;28;20044;-83
2024/01/03 12:14:58;;;;;;;17.30;1.90;;;9.50;99.90;;;;;;5053184;28;20398;-83
2024/01/03 12:17:32;;;;;;;19.25;2.20;;;9.50;99.90;;;;;;5052058;28;20048;-83
2024/01/03 12:20:08;;;;;;;19.83;3.80;;;9.60;99.90;;;;;;5035967;28;20110;-82
2024/01/03 12:22:35;;;;;;;17.17;3.13;;;9.60;99.90;;;;;;5052781;28;20136;-83
2024/01/03 12:25:01;;;;;;;13.07;2.42;;;9.60;99.90;;;;;;5052599;28;20103;-82
2024/01/03 12:27:26;;;;;;;11.82;2.40;;;9.60;99.90;;;;;;5052670;28;20049;-82
2024/01/03 12:30:18;;;;;;;16.27;2.65;;;9.60;99.90;;;;;;5052499;28;20049;-82
2024/01/03 12:32:46;;;;;;;10.10;2.50;;;9.50;99.90;;;;;;5052580;28;20157;-82
2024/01/03 12:35:12;;;;;;;13.77;1.92;;;9.50;99.90;;;;;;5052770;28;20127;-82
2024/01/03 12:37:46;;;;;;;16.80;2.17;;;9.40;99.90;;;;;;5052438;28;20041;-81
2024/01/03 12:40:16;;;;;;;17.80;2.33;;;9.50;99.90;;;;;;5052435;28;20049;-83
2024/01/03 12:42:43;;;;;;;15.52;2.28;;;9.40;99.90;;;;;;5052574;28;20055;-82
2024/01/03 12:45:09;;;;;;;13.80;2.28;;;9.50;99.90;;;;;;5052224;28;20459;-81
2024/01/03 12:47:36;;;;;;;12.75;2.30;;;9.40;99.90;;;;;;5052224;28;20041;-83
2024/01/03 12:50:02;;;;;;;18.65;2.13;;;9.40;99.90;;;;;;5052499;28;20423;-82